createdAt,value
2022-11-09T00:01:18.540Z,90.13783015670239
2022-11-09T00:04:18.516Z,90.2833093361125
2022-11-09T00:07:18.394Z,90.57318565349276
2022-11-09T00:11:17.130Z,90.10534909416216
2022-11-09T00:14:17.416Z,90.28764889182251
2022-11-09T00:17:17.144Z,90.67036245040558
2022-11-09T00:21:18.597Z,90.40749388082845
2022-11-09T00:24:17.140Z,90.91646159756922
2022-11-09T00:27:17.872Z,91.3124750994942
2022-11-09T00:31:18.541Z,91.35037263162377
2022-11-09T00:34:16.541Z,91.41278695696434
2022-11-09T00:37:16.461Z,91.46276533361761
2022-11-09T00:41:16.907Z,90.82919897265658
2022-11-09T00:44:17.257Z,91.15291984915366
2022-11-09T00:47:17.417Z,90.88459245113566
2022-11-09T00:51:17.824Z,91.00880329739537
2022-11-09T00:54:18.526Z,91.39572730782541
2022-11-09T00:57:17.612Z,91.98346730240475
2022-11-09T01:01:17.145Z,91.81897183397453
2022-11-09T01:04:17.958Z,92.82573147239562
2022-11-09T01:07:17.096Z,93.28522151969183
2022-11-09T01:11:19.337Z,93.7051416789849
2022-11-09T01:14:16.940Z,94.2863900491428
2022-11-09T01:17:17.558Z,94.70921876340554
2022-11-09T01:21:16.900Z,94.56213170063602
2022-11-09T01:24:17.489Z,94.21206059266368
2022-11-09T01:27:18.167Z,94.42061785872826
2022-11-09T01:31:20.209Z,93.3183344649982
2022-11-09T01:34:18.519Z,93.67799908785923
2022-11-09T01:37:18.103Z,93.34079013292687
2022-11-09T01:41:19.266Z,92.9114718046197
2022-11-09T01:44:19.351Z,93.11460556900934
2022-11-09T01:47:22.628Z,92.71669171662026
2022-11-09T01:51:27.210Z,92.17812112322036
2022-11-09T01:54:23.591Z,93.60678246092114
2022-11-09T01:57:21.958Z,93.88845126392438
2022-11-09T02:01:18.261Z,94.00422202844513
2022-11-09T02:04:21.393Z,94.12214192881615
2022-11-09T02:07:17.417Z,94.18578936937925
2022-11-09T02:11:22.473Z,93.8319669530915
2022-11-09T02:14:19.990Z,93.59618670259867
2022-11-09T02:17:19.052Z,93.38580124792016
2022-11-09T02:21:18.321Z,93.41436969019179
2022-11-09T02:24:18.557Z,93.74675326383915
2022-11-09T02:27:17.488Z,94.41027634602453
2022-11-09T02:31:17.885Z,94.38437843049824
2022-11-09T02:34:18.552Z,95.70612071260646
2022-11-09T02:37:28.554Z,95.88529391217065
2022-11-09T02:41:18.010Z,96.07741102757139
2022-11-09T02:44:18.899Z,96.62823531212626
2022-11-09T02:47:16.549Z,97.19154237556803
2022-11-09T02:51:16.982Z,97.07235032671339
2022-11-09T02:54:17.129Z,97.23190519258527
2022-11-09T02:57:18.163Z,97.12269615356719
2022-11-09T03:01:18.055Z,95.65810022942003
2022-11-09T03:04:18.337Z,96.80940179553423
2022-11-09T03:07:18.922Z,97.21500308147267
2022-11-09T03:11:16.700Z,96.65787162054498
2022-11-09T03:14:16.847Z,97.02939551156156
2022-11-09T03:17:17.550Z,96.9743559397542
2022-11-09T03:21:16.992Z,97.05986934683541
2022-11-09T03:24:17.085Z,97.09586669217391
2022-11-09T03:27:17.347Z,96.96518537395899
2022-11-09T03:31:17.002Z,97.09298798997686
2022-11-09T03:34:16.812Z,97.24167696335864
2022-11-09T03:37:17.151Z,97.0642190327226
2022-11-09T03:41:16.855Z,96.33044319730767
2022-11-09T03:44:17.376Z,96.84308726969782
2022-11-09T03:47:17.751Z,97.27041099905222
2022-11-09T03:51:16.133Z,96.90162616303247
2022-11-09T03:54:16.530Z,97.2814629254337
2022-11-09T03:57:17.153Z,97.10195454353378
2022-11-09T04:01:17.064Z,97.06991198684874
2022-11-09T04:04:18.321Z,97.48372986540232
2022-11-09T04:07:17.581Z,97.37017703111412
2022-11-09T04:11:16.388Z,96.57702571496812
2022-11-09T04:14:16.688Z,97.04013151545318
2022-11-09T04:17:16.469Z,96.9859103774543
2022-11-09T04:21:20.330Z,96.56605092584417
2022-11-09T04:24:17.297Z,96.8668520336912
2022-11-09T04:27:16.954Z,97.44599398661518
2022-11-09T04:31:18.798Z,97.82569098023728
2022-11-09T04:34:19.504Z,98.51835062789905
2022-11-09T04:37:19.258Z,98.54078973677392
2022-11-09T04:41:16.789Z,98.75455070358744
2022-11-09T04:44:17.260Z,99.1755411066201
2022-11-09T04:47:16.888Z,99.2782945560566
2022-11-09T04:51:16.744Z,98.80797297107902
2022-11-09T04:54:16.600Z,98.89005112616552
2022-11-09T04:57:17.154Z,98.77188242601001
2022-11-09T05:01:15.944Z,98.16887200903544
2022-11-09T05:04:16.749Z,97.77247853325326
2022-11-09T05:07:16.682Z,97.90149001197643
2022-11-09T05:11:17.064Z,97.66815059540811
2022-11-09T05:14:16.923Z,97.51462957853674
2022-11-09T05:17:17.101Z,98.18931783531622
2022-11-09T05:21:16.345Z,97.06067582661476
2022-11-09T05:24:17.121Z,97.4144606229332
2022-11-09T05:27:16.177Z,97.83292349521446
2022-11-09T05:31:16.734Z,97.71965141646791
2022-11-09T05:34:17.220Z,98.375547017597
2022-11-09T05:37:18.581Z,98.84260285048916
2022-11-09T05:41:17.065Z,98.9217575529511
2022-11-09T05:44:17.545Z,99.38301005316086
2022-11-09T05:47:17.218Z,99.64618281554267
2022-11-09T05:51:16.840Z,99.91244711828217
2022-11-09T05:54:17.109Z,100
2022-11-09T05:57:17.175Z,100
2022-11-09T06:01:20.467Z,99.93055358773867
2022-11-09T06:04:18.536Z,100
2022-11-09T06:07:18.446Z,99.9438098615326
2022-11-09T06:11:23.045Z,99.95287629885566
2022-11-09T06:14:16.436Z,100
2022-11-09T06:17:16.949Z,99.98307363070421
2022-11-09T06:21:16.404Z,99.95822826071226
2022-11-09T06:24:17.243Z,100
2022-11-09T06:27:16.643Z,100
2022-11-09T06:31:17.483Z,99.73316355327137
2022-11-09T06:34:16.640Z,100
2022-11-09T06:37:18.376Z,100
2022-11-09T06:41:21.919Z,100
2022-11-09T06:44:19.563Z,100
2022-11-09T06:47:17.109Z,100
2022-11-09T06:51:17.366Z,100
2022-11-09T06:54:17.481Z,100
2022-11-09T06:57:17.498Z,100
2022-11-09T07:01:20.836Z,100
2022-11-09T07:04:17.040Z,100
2022-11-09T07:07:17.129Z,100
2022-11-09T07:11:16.906Z,100
2022-11-09T07:14:16.528Z,100
2022-11-09T07:17:16.321Z,100
2022-11-09T07:21:16.439Z,100
2022-11-09T07:24:17.218Z,100
2022-11-09T07:27:17.098Z,100
2022-11-09T07:31:15.712Z,100
2022-11-09T07:34:16.279Z,100
2022-11-09T07:37:16.152Z,100
2022-11-09T07:41:16.300Z,100
2022-11-09T07:44:18.713Z,100
2022-11-09T07:47:18.349Z,100
2022-11-09T07:51:16.831Z,100
2022-11-09T07:54:17.728Z,100
2022-11-09T07:57:17.949Z,100
2022-11-09T08:01:16.256Z,100
2022-11-09T08:04:16.916Z,100
2022-11-09T08:07:16.950Z,100
2022-11-09T08:11:16.945Z,100
2022-11-09T08:14:17.190Z,100
2022-11-09T08:17:17.530Z,100
2022-11-09T08:21:17.228Z,100
2022-11-09T08:24:16.806Z,100
2022-11-09T08:27:17.082Z,100
2022-11-09T08:31:16.347Z,100
2022-11-09T08:34:17.697Z,100
2022-11-09T08:37:17.253Z,100
2022-11-09T08:41:16.379Z,100
2022-11-09T08:44:16.780Z,100
2022-11-09T08:47:16.724Z,100
2022-11-09T08:51:16.602Z,100
2022-11-09T08:54:18.396Z,100
2022-11-09T08:57:18.106Z,100
2022-11-09T09:01:22.034Z,100
2022-11-09T09:04:17.435Z,100
2022-11-09T09:07:18.088Z,100
2022-11-09T09:11:17.309Z,100
2022-11-09T09:14:17.356Z,100
2022-11-09T09:17:18.091Z,100
2022-11-09T09:21:17.374Z,100
2022-11-09T09:24:26.684Z,100
2022-11-09T09:27:17.018Z,100
2022-11-09T09:31:18.690Z,100
2022-11-09T09:34:17.692Z,100
2022-11-09T09:37:21.044Z,100
2022-11-09T09:41:21.782Z,100
2022-11-09T09:44:28.242Z,100
2022-11-09T09:47:22.124Z,100
2022-11-09T09:51:22.436Z,100
2022-11-09T09:54:20.449Z,100
2022-11-09T09:57:20.186Z,100
2022-11-09T10:01:20.373Z,97.18949196345108
2022-11-09T10:04:19.281Z,95.37145114441265
2022-11-09T10:07:25.972Z,95.86939272298228
2022-11-09T10:11:29.642Z,95.22682384522656
2022-11-09T10:14:43.305Z,95.5240155362747
2022-11-09T10:17:27.182Z,96.23123839983622
2022-11-09T10:21:30.704Z,98.66348473427568
2022-11-09T10:24:31.170Z,96.25307670272484
2022-11-09T10:27:26.530Z,91.42617434070692
2022-11-09T10:31:19.406Z,86.75853561676517
2022-11-09T10:34:19.123Z,87.08517613317375
2022-11-09T10:37:22.369Z,88.14219230849879
2022-11-09T10:41:29.517Z,84.71963691526581
2022-11-09T10:51:38.660Z,82.9483225160181
2022-11-09T11:01:20.315Z,79.92968357999948
2022-11-09T11:11:32.694Z,77.86510242342644
2022-11-09T11:21:19.655Z,78.20864429960163
2022-11-09T11:31:18.311Z,77.77757695798279
2022-11-09T11:42:36.601Z,72.6231357527593
2022-11-09T11:51:23.592Z,65.4371907485004
2022-11-09T12:01:38.363Z,64.70070458235854
2022-11-09T12:11:30.608Z,62.30675480424288
2022-11-09T12:21:17.867Z,60.26501029429354
2022-11-09T12:31:29.165Z,54.05592487457667
2022-11-09T12:41:20.239Z,57.30245158011726
2022-11-09T12:51:19.067Z,58.142651456990876
2022-11-09T13:01:46.799Z,57.44786234016653
2022-11-09T13:11:22.385Z,58.481277940086805
2022-11-09T13:21:37.018Z,56.86544019285467
2022-11-09T13:31:59.122Z,56.701276651838015
2022-11-09T13:41:48.714Z,55.4265738565662
2022-11-09T13:51:19.176Z,57.06636037720241
2022-11-09T14:01:38.088Z,55.27630959659981
2022-11-09T14:11:38.692Z,55.113478046601564
2022-11-09T14:21:30.251Z,54.741406399893
2022-11-09T14:31:26.605Z,55.98045226494152
2022-11-09T14:41:20.892Z,55.878130912877914
2022-11-09T14:51:17.334Z,56.24406385101475
2022-11-09T15:01:21.969Z,56.56378144990125
2022-11-09T15:11:16.755Z,57.030178139990475
2022-11-09T15:21:19.264Z,58.24562481278803
2022-11-09T15:31:17.899Z,61.7690949681584
2022-11-09T15:41:20.547Z,63.167344070059755
2022-11-09T15:51:19.282Z,64.32678999673949
2022-11-09T16:01:16.928Z,65.84638261700651
2022-11-09T16:11:17.475Z,67.72493438309124
2022-11-09T16:21:16.886Z,69.07648869755505
2022-11-09T16:31:25.316Z,71.66112995585692
2022-11-09T16:41:19.790Z,72.87694599935207
2022-11-09T16:51:20.340Z,74.7605782887477
2022-11-09T17:01:23.496Z,74.59554480882188
2022-11-09T17:11:19.463Z,74.98698064957719
2022-11-09T17:21:17.394Z,75.31289638725904
2022-11-09T17:31:19.973Z,75.73439161501776
2022-11-09T17:41:18.923Z,75.5755345660632
2022-11-09T17:51:19.456Z,75.63961783333302
2022-11-09T18:01:22.314Z,76.57533726727114
2022-11-09T18:11:18.871Z,77.30282643178501
2022-11-09T18:21:18.646Z,78.34217786335543
2022-11-09T18:31:17.647Z,79.12614660200487
2022-11-09T18:41:20.547Z,78.49601757398797
2022-11-09T18:51:18.257Z,78.63321582628929
2022-11-09T19:01:20.653Z,78.68491355600727
2022-11-09T19:11:19.557Z,79.82651207045996
2022-11-09T19:21:34.440Z,80.45619659979157
2022-11-09T19:31:19.743Z,80.63870157019363
2022-11-09T19:41:17.336Z,81.51837531179405
2022-11-09T19:51:20.173Z,82.42876628708886
2022-11-09T20:01:18.902Z,84.51206781318918
2022-11-09T20:12:50.639Z,86.27505168443165
2022-11-09T20:21:15.968Z,87.78865307060757
2022-11-09T20:31:18.772Z,88.03742045700355
2022-11-09T20:41:22.941Z,88.05876177072973
2022-11-09T20:51:19.459Z,88.9091737466907
2022-11-09T21:01:19.007Z,90.09077479639046
2022-11-09T21:21:23.743Z,91.38878819971065
2022-11-09T21:31:19.140Z,92.02560207636446
2022-11-09T21:41:50.446Z,92.09518120803911
2022-11-09T21:51:16.593Z,92.9612441177803
2022-11-09T22:01:20.368Z,92.98379900888033
2022-11-09T22:11:18.492Z,93.36083871034393
2022-11-09T22:21:16.278Z,94.68111902224425
2022-11-09T22:31:29.242Z,95.14258180608493
2022-11-09T22:41:22.585Z,94.673786311457
2022-11-09T22:51:22.146Z,95.54088578546487
2022-11-09T23:01:19.068Z,95.4059158112582
2022-11-09T23:11:18.619Z,95.70515752389308
2022-11-09T23:21:19.761Z,96.8216562745704
2022-11-09T23:31:22.453Z,97.81000995801917
2022-11-09T23:41:24.021Z,98.23927181257052
2022-11-09T23:51:21.569Z,98.65074301234277
